Time;durP1;ratioP1;P1;durP2;ratioP2;P2;SDS_P1;SDS_P2;PMS_P1;PMS_P2;Temp;Humidity;BMP_temperature;BMP_pressure;BME280_temperature;BME280_humidity;BME280_pressure;Samples;Min_cycle;Max_cycle;Signal;HPM_P1;HPM_P2
2021/04/16 00:00:29;;;;;;;8.40;5.45;;;2.40;99.90;;;;;;5007298;28;20199;-82
2021/04/16 00:02:55;;;;;;;4.78;4.13;;;2.40;99.90;;;;;;5006749;28;20542;-83
2021/04/16 00:05:23;;;;;;;7.43;5.18;;;2.30;99.90;;;;;;5006694;28;20210;-84
2021/04/16 00:07:50;;;;;;;6.38;4.85;;;2.30;99.90;;;;;;4999891;28;20252;-82
2021/04/16 00:10:22;;;;;;;8.15;5.43;;;2.30;99.90;;;;;;5001051;28;20205;-82
2021/04/16 00:12:48;;;;;;;9.02;6.32;;;2.30;99.90;;;;;;5007917;28;20217;-83
2021/04/16 00:15:18;;;;;;;6.93;4.53;;;2.30;99.90;;;;;;5010863;28;20650;-82
2021/04/16 00:17:44;;;;;;;6.43;4.65;;;2.20;99.90;;;;;;4994436;28;20223;-83
2021/04/16 00:20:13;;;;;;;6.05;5.10;;;2.20;99.90;;;;;;5002117;28;20197;-83
2021/04/16 00:22:40;;;;;;;6.03;4.45;;;2.20;99.90;;;;;;5038525;28;20206;-82
2021/04/16 00:25:09;;;;;;;6.65;4.75;;;2.20;99.90;;;;;;5012478;28;20301;-83
2021/04/16 00:27:35;;;;;;;6.82;5.15;;;2.20;99.90;;;;;;5044469;28;20194;-83
2021/04/16 00:30:03;;;;;;;6.18;4.80;;;2.30;99.90;;;;;;5026054;28;20193;-84
2021/04/16 00:32:29;;;;;;;9.20;5.28;;;2.40;99.90;;;;;;5117477;28;20254;-82
2021/04/16 00:34:55;;;;;;;6.28;3.83;;;2.40;99.90;;;;;;5048315;28;20245;-82
2021/04/16 00:37:22;;;;;;;6.88;5.85;;;2.60;99.90;;;;;;5012369;28;20341;-84
2021/04/16 00:39:49;;;;;;;8.27;5.65;;;2.70;99.90;;;;;;5013218;28;20543;-83
2021/04/16 00:42:16;;;;;;;6.07;5.47;;;2.80;99.90;;;;;;5005521;28;20198;-83
2021/04/16 00:44:42;;;;;;;8.15;4.90;;;2.90;99.90;;;;;;5000357;28;20184;-83
2021/04/16 00:47:14;;;;;;;5.90;4.50;;;2.90;99.90;;;;;;4995177;28;20210;-83
2021/04/16 00:49:44;;;;;;;5.13;4.32;;;3.10;99.90;;;;;;5003600;28;20652;-84
2021/04/16 00:52:12;;;;;;;5.90;5.20;;;3.20;99.90;;;;;;5001292;28;20192;-84
2021/04/16 00:54:42;;;;;;;6.70;4.70;;;3.20;99.90;;;;;;4993672;28;20202;-84
2021/04/16 00:57:12;;;;;;;10.02;5.60;;;3.30;99.90;;;;;;5003995;28;20232;-83
2021/04/16 00:59:44;;;;;;;7.50;5.60;;;3.40;99.90;;;;;;5005825;28;20192;-83
2021/04/16 01:02:10;;;;;;;5.97;4.80;;;3.40;99.90;;;;;;5013870;28;20309;-84
2021/04/16 01:04:37;;;;;;;6.45;5.35;;;3.40;99.90;;;;;;5006012;28;20544;-84
2021/04/16 01:07:06;;;;;;;6.97;4.82;;;3.40;99.90;;;;;;5006453;28;20211;-84
2021/04/16 01:09:33;;;;;;;6.88;5.13;;;3.50;99.90;;;;;;5014404;28;20215;-84
2021/04/16 01:12:02;;;;;;;8.05;5.15;;;3.50;99.90;;;;;;5014766;28;20245;-84
2021/04/16 01:14:29;;;;;;;7.28;5.55;;;3.50;99.90;;;;;;5013657;28;20192;-84
2021/04/16 01:16:56;;;;;;;6.57;5.82;;;3.60;99.90;;;;;;5009403;28;20207;-85
2021/04/16 01:19:30;;;;;;;5.82;4.60;;;3.60;99.90;;;;;;5014220;28;20186;-84
2021/04/16 01:22:01;;;;;;;7.18;5.07;;;3.60;99.90;;;;;;5014384;28;20547;-84
2021/04/16 01:24:30;;;;;;;8.52;6.53;;;3.70;99.90;;;;;;5012423;28;20189;-83
2021/04/16 01:26:57;;;;;;;6.65;4.53;;;3.70;99.90;;;;;;5014101;28;20237;-83
2021/04/16 01:29:25;;;;;;;8.35;5.38;;;3.70;99.90;;;;;;5012964;28;20208;-84
2021/04/16 01:31:51;;;;;;;6.60;4.43;;;3.70;99.90;;;;;;5005488;28;20183;-82
2021/04/16 01:34:20;;;;;;;5.90;4.57;;;3.70;99.90;;;;;;4995858;28;20194;-83
2021/04/16 01:36:47;;;;;;;7.30;4.72;;;3.80;99.90;;;;;;5010160;28;20584;-83
2021/04/16 01:39:14;;;;;;;7.47;6.40;;;3.70;99.90;;;;;;5005854;28;20192;-83
2021/04/16 01:41:41;;;;;;;6.90;4.95;;;3.80;99.90;;;;;;4996395;28;20560;-83
2021/04/16 01:44:10;;;;;;;8.02;4.28;;;3.80;99.90;;;;;;5013737;28;20212;-83
2021/04/16 01:46:50;;;;;;;5.90;4.65;;;3.80;99.90;;;;;;5009118;28;20263;-83
2021/04/16 01:49:17;;;;;;;8.15;4.93;;;3.70;99.90;;;;;;4998025;28;20551;-83
2021/04/16 01:51:44;;;;;;;6.35;4.60;;;3.70;99.90;;;;;;5009804;28;20628;-84
2021/04/16 01:54:12;;;;;;;7.35;5.40;;;3.70;99.90;;;;;;4998150;28;20502;-84
2021/04/16 01:56:40;;;;;;;10.13;4.80;;;3.70;99.90;;;;;;4997634;28;20189;-84
2021/04/16 01:59:08;;;;;;;9.60;5.90;;;3.80;99.90;;;;;;4998904;28;20241;-83
2021/04/16 02:01:34;;;;;;;5.70;4.45;;;3.70;99.90;;;;;;5007109;28;20188;-84
2021/04/16 02:04:01;;;;;;;6.55;4.88;;;3.70;99.90;;;;;;5007364;28;20207;-84
2021/04/16 02:06:27;;;;;;;7.22;4.80;;;3.70;99.90;;;;;;4993872;28;20281;-83
2021/04/16 02:08:54;;;;;;;9.45;4.22;;;3.70;99.90;;;;;;5011615;28;20222;-84
2021/04/16 02:11:21;;;;;;;8.35;5.15;;;3.80;99.90;;;;;;5006188;28;20200;-83
2021/04/16 02:13:47;;;;;;;5.40;4.47;;;3.70;99.90;;;;;;4993305;28;20220;-84
2021/04/16 02:16:14;;;;;;;5.72;4.40;;;3.70;99.90;;;;;;4995400;28;20594;-83
2021/04/16 02:18:40;;;;;;;7.88;5.40;;;3.70;99.90;;;;;;4995732;28;20214;-83
2021/04/16 02:21:07;;;;;;;6.55;4.47;;;3.70;99.90;;;;;;4993880;28;20196;-84
2021/04/16 02:23:33;;;;;;;6.25;4.82;;;3.70;99.90;;;;;;5012580;28;20186;-84
2021/04/16 02:25:59;;;;;;;7.75;5.40;;;3.70;99.90;;;;;;5005143;28;20201;-83
2021/04/16 02:28:25;;;;;;;6.10;4.50;;;3.80;99.90;;;;;;5001512;28;20212;-84
2021/04/16 02:30:52;;;;;;;5.47;3.75;;;3.90;99.90;;;;;;5012296;28;20189;-83
2021/04/16 02:33:19;;;;;;;7.60;4.53;;;3.90;99.90;;;;;;5016382;28;20194;-84
2021/04/16 02:35:45;;;;;;;6.70;4.75;;;3.80;99.90;;;;;;5012256;28;20186;-84
2021/04/16 02:38:11;;;;;;;5.50;4.20;;;3.80;99.90;;;;;;5011082;28;20311;-84
2021/04/16 02:40:38;;;;;;;5.55;4.35;;;3.80;99.90;;;;;;5011377;28;20189;-84
2021/04/16 02:43:04;;;;;;;6.88;5.47;;;3.80;99.90;;;;;;5012264;28;20192;-84
2021/04/16 02:45:30;;;;;;;8.70;4.72;;;3.70;99.90;;;;;;5000107;28;20190;-84
2021/04/16 02:47:56;;;;;;;8.43;4.53;;;3.70;99.90;;;;;;5004774;28;20189;-83
2021/04/16 02:50:26;;;;;;;6.10;4.15;;;3.70;99.90;;;;;;5002512;28;20192;-83
2021/04/16 02:52:53;;;;;;;7.95;5.55;;;3.60;99.90;;;;;;4998380;28;20659;-83
2021/04/16 02:55:19;;;;;;;5.93;4.53;;;3.70;99.90;;;;;;5002866;28;20236;-84
2021/04/16 02:57:45;;;;;;;7.25;5.10;;;3.60;99.90;;;;;;5001615;28;20260;-84
2021/04/16 03:00:15;;;;;;;6.47;4.65;;;3.60;99.90;;;;;;5009831;28;20197;-82
2021/04/16 03:02:41;;;;;;;7.13;5.35;;;3.60;99.90;;;;;;5001795;28;20185;-83
2021/04/16 03:05:09;;;;;;;6.55;5.45;;;3.60;99.90;;;;;;5011503;28;20185;-82
2021/04/16 03:07:36;;;;;;;4.80;4.18;;;3.50;99.90;;;;;;5011614;28;20208;-82
2021/04/16 03:10:03;;;;;;;6.40;5.40;;;3.50;99.90;;;;;;5000832;28;20533;-84
2021/04/16 03:12:30;;;;;;;5.47;4.28;;;3.60;99.90;;;;;;5002541;28;20203;-84
2021/04/16 03:14:56;;;;;;;8.70;6.05;;;3.60;99.90;;;;;;5000886;28;20203;-83
2021/04/16 03:17:23;;;;;;;8.20;5.38;;;3.60;99.90;;;;;;5010786;28;20322;-83
2021/04/16 03:19:49;;;;;;;8.93;5.00;;;3.60;99.90;;;;;;5011584;28;20226;-84
2021/04/16 03:22:16;;;;;;;5.85;4.75;;;3.60;99.90;;;;;;4992321;28;20194;-84
2021/04/16 03:24:43;;;;;;;5.53;4.50;;;3.70;99.90;;;;;;5009819;28;20189;-83
2021/04/16 03:27:09;;;;;;;5.63;4.55;;;3.70;99.90;;;;;;5013906;28;20517;-84
2021/04/16 03:29:35;;;;;;;7.60;5.20;;;3.70;99.90;;;;;;5016666;28;20192;-83
2021/04/16 03:32:02;;;;;;;6.88;6.18;;;3.80;99.90;;;;;;5002865;28;20189;-84
2021/04/16 03:34:29;;;;;;;7.70;5.35;;;3.80;99.90;;;;;;5001817;28;20194;-84
2021/04/16 03:36:55;;;;;;;7.10;5.40;;;3.80;99.90;;;;;;4992717;28;20232;-83
2021/04/16 03:39:21;;;;;;;6.78;4.95;;;3.70;99.90;;;;;;5002872;28;20197;-83
2021/04/16 03:41:48;;;;;;;7.75;6.03;;;3.80;99.90;;;;;;5001485;28;20192;-83
2021/04/16 03:44:15;;;;;;;7.95;6.40;;;3.80;99.90;;;;;;4993117;28;20655;-84
2021/04/16 03:46:41;;;;;;;8.88;5.80;;;3.70;99.90;;;;;;5010952;28;20185;-84
2021/04/16 03:49:07;;;;;;;9.90;5.72;;;3.80;99.90;;;;;;5011739;28;20193;-83
2021/04/16 03:51:48;;;;;;;8.57;5.45;;;3.80;99.90;;;;;;4993898;28;20189;-83
2021/04/16 03:54:14;;;;;;;8.90;6.07;;;3.80;99.90;;;;;;4992341;28;20185;-85
2021/04/16 03:56:40;;;;;;;8.93;5.97;;;3.80;99.90;;;;;;5003765;28;20245;-85
2021/04/16 03:59:07;;;;;;;8.43;6.82;;;3.90;99.90;;;;;;5015945;28;20647;-85
2021/04/16 04:01:34;;;;;;;7.88;6.45;;;3.90;99.90;;;;;;5023988;28;20854;-84
2021/04/16 04:04:00;;;;;;;8.13;6.15;;;3.90;99.90;;;;;;5012467;28;20220;-84
2021/04/16 04:06:26;;;;;;;7.78;6.07;;;3.90;99.90;;;;;;4993726;28;20569;-84
2021/04/16 04:08:52;;;;;;;8.70;5.97;;;3.80;99.90;;;;;;5010822;28;20196;-84
2021/04/16 04:11:19;;;;;;;12.20;6.53;;;3.80;99.90;;;;;;5010900;28;20190;-84
2021/04/16 04:13:45;;;;;;;5.75;4.75;;;3.80;99.90;;;;;;5005602;28;20193;-84
2021/04/16 04:16:12;;;;;;;6.88;5.40;;;3.80;99.90;;;;;;5006074;28;20192;-84
2021/04/16 04:18:39;;;;;;;8.40;5.38;;;3.70;99.90;;;;;;5010870;28;20216;-84
2021/04/16 04:21:05;;;;;;;7.88;6.10;;;3.70;99.90;;;;;;5005539;28;20199;-84
2021/04/16 04:23:32;;;;;;;7.72;6.22;;;3.70;99.90;;;;;;5005754;28;20203;-84
2021/04/16 04:25:58;;;;;;;6.43;5.80;;;3.60;99.90;;;;;;5010821;28;20192;-84
2021/04/16 04:28:25;;;;;;;7.03;6.15;;;3.50;99.90;;;;;;5008439;28;20195;-84
2021/04/16 04:30:52;;;;;;;7.53;6.22;;;3.40;99.90;;;;;;5010530;28;20196;-84
2021/04/16 04:33:19;;;;;;;8.90;6.80;;;3.30;99.90;;;;;;5010249;28;20284;-84
2021/04/16 04:35:45;;;;;;;9.85;6.25;;;3.20;99.90;;;;;;5005945;28;20193;-84
2021/04/16 04:38:12;;;;;;;8.20;6.25;;;3.20;99.90;;;;;;5007334;28;20225;-85
2021/04/16 04:40:38;;;;;;;9.02;6.80;;;3.20;99.90;;;;;;5010467;28;20188;-84
2021/04/16 04:43:05;;;;;;;7.93;7.10;;;3.20;99.90;;;;;;5008688;28;20207;-83
2021/04/16 04:45:32;;;;;;;9.57;7.13;;;3.20;99.90;;;;;;5008309;28;20724;-83
2021/04/16 04:47:59;;;;;;;10.55;7.25;;;3.10;99.90;;;;;;5012093;28;20196;-84
2021/04/16 04:50:26;;;;;;;8.23;6.43;;;3.10;99.90;;;;;;5007899;28;20663;-83
2021/04/16 04:52:53;;;;;;;9.02;6.53;;;3.00;99.90;;;;;;5010422;28;20195;-84
2021/04/16 04:55:23;;;;;;;9.95;7.80;;;3.00;99.90;;;;;;5010612;28;20189;-83
2021/04/16 04:57:49;;;;;;;10.02;7.00;;;3.10;99.90;;;;;;5007984;28;20223;-82
2021/04/16 05:00:18;;;;;;;10.55;9.55;;;3.10;99.90;;;;;;5008494;28;20187;-83
2021/04/16 05:02:44;;;;;;;10.45;7.50;;;3.10;99.90;;;;;;5009917;28;20204;-83
2021/04/16 05:05:12;;;;;;;8.73;7.10;;;3.10;99.90;;;;;;4993232;28;20200;-83
2021/04/16 05:07:40;;;;;;;8.85;7.25;;;3.10;99.90;;;;;;5005316;28;20192;-83
2021/04/16 05:10:07;;;;;;;8.57;7.68;;;3.10;99.90;;;;;;5011271;28;20213;-82
2021/04/16 05:12:34;;;;;;;12.10;7.38;;;3.10;99.90;;;;;;5004544;28;20215;-83
2021/04/16 05:15:00;;;;;;;10.73;6.97;;;3.20;99.90;;;;;;5006530;28;20197;-83
2021/04/16 05:17:26;;;;;;;11.95;8.68;;;3.20;99.90;;;;;;4999091;28;20601;-83
2021/04/16 05:19:53;;;;;;;10.77;8.25;;;3.20;99.90;;;;;;5004437;28;20706;-83
2021/04/16 05:22:19;;;;;;;12.88;9.95;;;3.20;99.90;;;;;;5005048;28;20283;-82
2021/04/16 05:24:46;;;;;;;13.23;9.63;;;3.20;99.90;;;;;;4999886;28;20189;-82
2021/04/16 05:27:16;;;;;;;13.50;11.00;;;3.20;99.90;;;;;;5005816;28;20185;-82
2021/04/16 05:29:42;;;;;;;13.93;10.55;;;3.30;99.90;;;;;;5008858;28;20194;-84
2021/04/16 05:32:09;;;;;;;14.85;11.20;;;3.40;99.90;;;;;;5009528;28;20199;-83
2021/04/16 05:34:35;;;;;;;15.05;9.95;;;3.40;99.90;;;;;;5004293;28;20186;-83
2021/04/16 05:37:02;;;;;;;11.73;9.07;;;3.50;99.90;;;;;;5005792;28;20585;-83
2021/04/16 05:39:29;;;;;;;12.60;9.25;;;3.50;99.90;;;;;;5001158;28;20194;-82
2021/04/16 05:41:56;;;;;;;12.75;9.30;;;3.60;99.90;;;;;;5010838;28;20556;-83
2021/04/16 05:44:23;;;;;;;10.40;7.82;;;3.70;99.90;;;;;;5012604;28;20219;-84
2021/04/16 05:46:49;;;;;;;13.43;10.05;;;3.70;99.90;;;;;;5000419;28;20201;-85
2021/04/16 05:49:15;;;;;;;12.70;9.77;;;3.80;99.90;;;;;;5017191;28;20199;-85
2021/04/16 05:51:42;;;;;;;13.77;9.85;;;3.80;99.90;;;;;;5018540;28;20189;-85
2021/04/16 05:54:08;;;;;;;16.10;9.18;;;3.90;99.90;;;;;;5035335;28;20240;-85
2021/04/16 05:56:35;;;;;;;10.77;9.55;;;4.00;99.90;;;;;;5030055;28;20197;-85
2021/04/16 05:59:02;;;;;;;8.20;7.32;;;4.20;99.90;;;;;;5026366;28;20220;-85
2021/04/16 06:01:29;;;;;;;9.52;8.38;;;4.30;99.90;;;;;;5013038;28;20196;-85
2021/04/16 06:03:57;;;;;;;11.85;9.63;;;4.50;99.90;;;;;;5013956;28;20188;-84
2021/04/16 06:06:23;;;;;;;14.02;9.10;;;4.70;99.90;;;;;;5013417;28;20193;-85
2021/04/16 06:08:49;;;;;;;15.02;11.65;;;4.80;99.90;;;;;;5009598;28;20189;-85
2021/04/16 06:11:16;;;;;;;15.13;10.73;;;4.90;99.90;;;;;;5013331;28;20197;-85
2021/04/16 06:13:42;;;;;;;12.43;11.18;;;4.90;99.90;;;;;;5011675;28;20202;-83
2021/04/16 06:16:10;;;;;;;16.20;10.30;;;4.90;99.90;;;;;;5012708;28;20190;-87
2021/04/16 06:18:37;;;;;;;12.57;8.60;;;5.00;99.90;;;;;;5008896;28;20617;-84
2021/04/16 06:21:04;;;;;;;10.93;7.90;;;5.00;99.90;;;;;;5011072;28;20211;-86
2021/04/16 06:23:31;;;;;;;10.23;8.18;;;5.00;99.90;;;;;;5031769;28;20194;-84
2021/04/16 06:25:57;;;;;;;8.07;7.28;;;5.00;99.90;;;;;;5009287;28;20190;-86
2021/04/16 06:28:24;;;;;;;9.05;6.95;;;5.00;99.90;;;;;;5002572;28;20242;-85
2021/04/16 06:30:51;;;;;;;19.75;8.05;;;5.00;99.90;;;;;;4996185;28;20649;-86
2021/04/16 06:33:24;;;;;;;14.48;7.20;;;5.00;99.90;;;;;;5012187;28;20220;-87
2021/04/16 06:35:54;;;;;;;13.63;7.78;;;5.00;99.90;;;;;;5012704;28;20702;-84
2021/04/16 06:38:23;;;;;;;8.50;7.03;;;5.00;99.90;;;;;;5011169;28;20273;-86
2021/04/16 06:40:52;;;;;;;10.63;7.43;;;5.00;99.90;;;;;;5012017;28;20946;-85
2021/04/16 06:43:21;;;;;;;7.47;6.68;;;5.10;99.90;;;;;;5000594;28;20194;-84
2021/04/16 06:45:53;;;;;;;8.90;5.88;;;5.10;99.90;;;;;;5000838;28;20193;-85
2021/04/16 06:48:21;;;;;;;9.10;6.93;;;5.20;99.90;;;;;;5012869;28;20250;-87
2021/04/16 06:50:47;;;;;;;6.97;6.13;;;5.20;99.90;;;;;;5016301;28;20189;-86
2021/04/16 06:53:22;;;;;;;8.70;6.53;;;5.30;99.90;;;;;;5019543;28;20189;-86
2021/04/16 06:55:56;;;;;;;8.52;5.35;;;5.40;99.90;;;;;;5012574;28;20189;-86
2021/04/16 06:58:28;;;;;;;9.10;6.45;;;5.40;99.90;;;;;;5013474;28;20216;-85
2021/04/16 07:01:05;;;;;;;6.63;6.03;;;5.50;99.90;;;;;;5015540;28;20276;-85
2021/04/16 07:03:35;;;;;;;8.63;5.80;;;5.50;99.90;;;;;;5000026;28;20189;-85
2021/04/16 07:06:06;;;;;;;9.18;5.20;;;5.50;99.90;;;;;;5016402;28;20185;-85
2021/04/16 07:08:37;;;;;;;6.93;5.65;;;5.60;99.90;;;;;;5013490;28;20178;-84
2021/04/16 07:11:14;;;;;;;8.70;5.13;;;5.60;99.90;;;;;;5012514;28;20196;-85
2021/04/16 07:13:40;;;;;;;7.03;6.32;;;5.60;99.90;;;;;;5012199;28;20280;-87
2021/04/16 07:16:08;;;;;;;10.25;5.00;;;5.70;99.90;;;;;;5014915;28;20234;-85
2021/04/16 07:18:40;;;;;;;9.32;7.63;;;5.70;99.90;;;;;;5011882;28;20209;-86
2021/04/16 07:21:08;;;;;;;8.27;6.53;;;5.80;99.90;;;;;;5011844;28;20189;-85
2021/04/16 07:23:44;;;;;;;11.88;7.30;;;5.90;99.90;;;;;;5013070;28;20185;-85
2021/04/16 07:26:19;;;;;;;9.52;7.18;;;6.00;99.90;;;;;;5012956;28;20542;-85
2021/04/16 07:28:49;;;;;;;11.05;5.97;;;6.00;99.90;;;;;;5007678;28;20193;-87
2021/04/16 07:31:45;;;;;;;6.82;5.68;;;6.10;99.90;;;;;;5023226;28;20219;-85
2021/04/16 07:34:38;;;;;;;7.38;6.30;;;6.20;99.90;;;;;;5014594;28;20176;-83
2021/04/16 07:37:16;;;;;;;7.15;5.90;;;6.20;99.90;;;;;;4991958;28;20313;-86
2021/04/16 07:39:48;;;;;;;6.47;5.30;;;6.30;99.90;;;;;;4999847;28;20213;-86
2021/04/16 07:42:23;;;;;;;15.50;6.50;;;6.40;99.90;;;;;;5030644;28;20574;-84
2021/04/16 07:45:10;;;;;;;6.72;5.55;;;6.50;99.90;;;;;;5027361;28;20658;-81
2021/04/16 07:47:37;;;;;;;5.68;4.65;;;6.50;99.90;;;;;;5011287;28;20185;-84
2021/04/16 07:50:08;;;;;;;6.15;4.18;;;6.50;99.90;;;;;;5015752;28;20181;-82
2021/04/16 07:52:37;;;;;;;5.30;4.63;;;6.60;99.90;;;;;;5011196;28;20224;-83
2021/04/16 07:55:17;;;;;;;5.57;4.22;;;6.70;99.90;;;;;;5012706;28;20186;-84
2021/04/16 07:57:57;;;;;;;6.03;4.85;;;6.80;99.90;;;;;;5011147;28;20219;-82
2021/04/16 08:00:27;;;;;;;5.30;3.92;;;6.90;99.90;;;;;;5016286;28;20185;-82
2021/04/16 08:03:04;;;;;;;8.43;4.20;;;7.00;99.90;;;;;;5010939;28;20277;-85
2021/04/16 08:05:35;;;;;;;6.60;3.92;;;7.00;99.90;;;;;;5012484;28;20193;-84
2021/04/16 08:08:12;;;;;;;5.68;3.80;;;7.20;99.90;;;;;;5011054;28;20186;-83
2021/04/16 08:10:39;;;;;;;5.63;4.25;;;7.20;99.90;;;;;;5022986;28;20227;-85
2021/04/16 08:13:11;;;;;;;6.68;3.80;;;7.30;99.90;;;;;;5019527;28;20210;-86
2021/04/16 08:15:38;;;;;;;8.35;4.15;;;7.50;99.90;;;;;;5010882;28;20189;-85
2021/04/16 08:18:09;;;;;;;7.90;4.30;;;7.50;99.90;;;;;;5013931;28;20211;-84
2021/04/16 08:20:55;;;;;;;6.18;3.95;;;7.70;99.90;;;;;;5010949;28;20216;-84
2021/04/16 08:23:21;;;;;;;9.27;5.03;;;7.70;99.90;;;;;;5011797;28;20196;-85
2021/04/16 08:25:52;;;;;;;7.30;4.00;;;7.80;99.90;;;;;;5011638;28;20277;-84
2021/04/16 08:28:25;;;;;;;5.18;3.83;;;7.80;99.90;;;;;;5012456;28;20625;-84
2021/04/16 08:30:57;;;;;;;6.88;4.05;;;7.90;99.90;;;;;;5020700;28;20177;-84
2021/04/16 08:33:33;;;;;;;5.80;3.38;;;8.10;99.90;;;;;;5041267;28;20233;-85
2021/04/16 08:36:11;;;;;;;4.20;3.30;;;8.30;99.90;;;;;;5044401;28;20747;-85
2021/04/16 08:38:44;;;;;;;7.28;3.90;;;8.30;99.90;;;;;;5002670;28;20270;-84
2021/04/16 08:41:12;;;;;;;6.97;3.38;;;8.40;99.90;;;;;;5013652;28;20598;-85
2021/04/16 08:43:41;;;;;;;5.65;3.42;;;8.60;99.90;;;;;;5019120;28;20188;-85
2021/04/16 08:46:20;;;;;;;7.40;4.45;;;8.80;99.90;;;;;;5031404;28;20184;-84
2021/04/16 08:48:52;;;;;;;4.82;3.72;;;9.00;99.90;;;;;;4999644;28;20215;-84
2021/04/16 08:51:21;;;;;;;4.55;3.13;;;9.30;99.90;;;;;;5009995;28;20188;-85
2021/04/16 08:53:48;;;;;;;19.67;3.03;;;9.50;99.90;;;;;;5010882;28;20193;-86
2021/04/16 08:56:18;;;;;;;4.50;2.97;;;9.80;99.90;;;;;;4998223;28;20462;-85
2021/04/16 08:58:45;;;;;;;5.43;3.65;;;10.10;99.90;;;;;;5010711;28;20304;-85
2021/04/16 09:01:16;;;;;;;6.28;3.17;;;10.40;99.90;;;;;;5002632;28;20216;-86
2021/04/16 09:03:45;;;;;;;4.70;2.70;;;10.60;99.90;;;;;;5010626;28;20250;-85
2021/04/16 09:06:25;;;;;;;3.53;2.40;;;10.90;99.90;;;;;;5015341;28;20193;-88
2021/04/16 09:08:53;;;;;;;3.95;2.90;;;11.00;99.90;;;;;;5007802;28;20300;-86
2021/04/16 09:11:53;;;;;;;3.65;2.40;;;11.00;99.90;;;;;;5014229;28;20195;-89
2021/04/16 09:14:51;;;;;;;4.80;3.08;;;11.30;99.90;;;;;;5022802;28;20196;-87
2021/04/16 09:17:18;;;;;;;9.02;2.95;;;11.40;99.90;;;;;;5031006;28;20558;-87
2021/04/16 09:20:00;;;;;;;4.03;2.58;;;11.20;99.90;;;;;;5016310;28;20564;-87
2021/04/16 09:22:45;;;;;;;4.22;2.90;;;11.00;99.90;;;;;;5015450;28;20288;-85
2021/04/16 09:25:39;;;;;;;5.57;3.35;;;10.80;99.90;;;;;;5029581;28;20241;-87
2021/04/16 09:28:31;;;;;;;5.35;3.15;;;10.80;99.90;;;;;;5020811;27;20193;-86
2021/04/16 09:31:01;;;;;;;3.95;2.78;;;11.10;99.90;;;;;;5014633;28;20710;-85
2021/04/16 09:33:41;;;;;;;4.50;2.70;;;10.90;99.90;;;;;;5015297;28;20200;-87
2021/04/16 09:36:09;;;;;;;3.47;2.50;;;10.90;99.90;;;;;;5033807;28;20575;-86
2021/04/16 09:39:11;;;;;;;4.22;2.70;;;10.80;99.90;;;;;;5019522;28;20224;-86
2021/04/16 09:41:38;;;;;;;3.78;2.55;;;10.80;99.90;;;;;;5025272;28;20272;-86
2021/04/16 09:44:46;;;;;;;3.88;2.30;;;10.90;99.90;;;;;;5020190;28;20200;-85
2021/04/16 09:47:33;;;;;;;4.85;2.88;;;11.20;99.90;;;;;;5013296;28;20572;-86
2021/04/16 09:50:01;;;;;;;3.65;2.15;;;11.40;99.90;;;;;;5013604;28;20257;-85
2021/04/16 09:52:48;;;;;;;2.38;1.33;;;11.60;99.90;;;;;;5023205;28;20185;-86
2021/04/16 09:55:52;;;;;;;3.97;2.55;;;11.70;99.90;;;;;;5016540;28;20188;-86
2021/04/16 09:59:08;;;;;;;3.67;1.85;;;12.10;99.90;;;;;;5011913;28;20247;-87
2021/04/16 10:05:32;;;;;;;3.00;1.73;;;12.00;99.90;;;;;;5010775;28;20190;-87
2021/04/16 10:08:03;;;;;;;5.40;2.17;;;11.70;99.90;;;;;;5018711;28;20616;-87
2021/04/16 10:10:34;;;;;;;2.75;1.73;;;11.70;99.90;;;;;;5017045;28;20318;-87
2021/04/16 10:13:06;;;;;;;2.55;1.77;;;11.50;99.90;;;;;;5025498;28;20279;-88
2021/04/16 10:15:37;;;;;;;5.40;2.20;;;11.50;99.90;;;;;;5026708;28;20186;-87
2021/04/16 10:18:06;;;;;;;4.72;2.65;;;11.60;99.90;;;;;;5013669;28;20297;-87
2021/04/16 10:20:40;;;;;;;3.65;2.35;;;11.50;99.90;;;;;;5017889;28;20630;-86
2021/04/16 10:23:17;;;;;;;4.47;2.90;;;11.40;99.90;;;;;;5015384;28;20190;-87
2021/04/16 12:38:30;;;;;;;3.95;2.75;;;17.90;92.60;;;;;;5047209;28;20233;-85
2021/04/16 12:40:57;;;;;;;5.25;2.30;;;18.30;92.70;;;;;;5022679;28;20211;-84
2021/04/16 12:43:24;;;;;;;4.68;3.20;;;17.40;90.90;;;;;;5006034;28;20713;-83
2021/04/16 12:45:53;;;;;;;4.20;2.40;;;17.10;89.80;;;;;;5045198;28;20242;-84
2021/04/16 12:48:21;;;;;;;4.35;2.25;;;17.90;91.30;;;;;;5084200;28;20193;-84
2021/04/16 12:50:47;;;;;;;4.47;2.60;;;18.70;90.50;;;;;;5010242;28;20190;-84
2021/04/16 12:53:13;;;;;;;3.47;2.42;;;19.20;90.70;;;;;;5007423;28;20260;-85
2021/04/16 12:55:40;;;;;;;3.70;3.17;;;19.80;89.60;;;;;;5013194;28;20200;-84
2021/04/16 12:58:09;;;;;;;4.35;3.00;;;19.80;86.50;;;;;;5013110;28;20209;-84
2021/04/16 13:00:37;;;;;;;4.70;2.80;;;19.20;82.50;;;;;;5011141;28;20226;-84
2021/04/16 13:03:06;;;;;;;3.55;3.05;;;18.80;84.70;;;;;;5013921;28;21012;-85
2021/04/16 13:05:35;;;;;;;7.45;3.17;;;18.60;85.40;;;;;;5015040;28;20194;-84
2021/04/16 13:08:02;;;;;;;10.00;2.92;;;18.60;81.90;;;;;;5014083;28;20197;-84
2021/04/16 13:10:29;;;;;;;8.70;3.42;;;18.40;84.00;;;;;;5028923;28;20189;-85
2021/04/16 13:12:55;;;;;;;6.72;3.03;;;18.50;85.20;;;;;;5010867;28;20663;-83
2021/04/16 13:15:22;;;;;;;5.40;3.50;;;18.30;85.10;;;;;;5045670;28;20186;-85
2021/04/16 13:17:50;;;;;;;3.50;2.63;;;18.70;85.40;;;;;;5015135;28;20217;-85
2021/04/16 13:20:19;;;;;;;4.63;2.70;;;18.90;81.70;;;;;;5021891;28;20241;-88
2021/04/16 13:22:47;;;;;;;4.50;2.15;;;18.60;80.50;;;;;;5022900;28;20197;-87
2021/04/16 13:25:16;;;;;;;5.68;2.67;;;18.10;83.00;;;;;;5016619;28;20193;-87
2021/04/16 13:27:43;;;;;;;3.90;2.78;;;18.10;83.10;;;;;;5019855;28;20197;-85
2021/04/16 13:30:13;;;;;;;7.50;2.80;;;18.80;84.00;;;;;;5032934;28;20235;-85
2021/04/16 13:32:42;;;;;;;3.47;2.65;;;19.60;81.70;;;;;;5015543;28;20186;-86
2021/04/16 13:35:12;;;;;;;3.85;2.78;;;20.00;79.80;;;;;;5015859;28;20190;-87
2021/04/16 13:37:39;;;;;;;3.28;2.72;;;20.10;83.20;;;;;;5022620;28;20224;-86
2021/04/16 13:40:08;;;;;;;3.42;2.97;;;19.80;81.00;;;;;;5015680;28;20193;-87
2021/04/16 13:42:34;;;;;;;4.97;2.53;;;19.50;79.40;;;;;;5023381;28;20595;-86
2021/04/16 13:45:00;;;;;;;7.05;2.50;;;20.30;77.90;;;;;;5014944;28;20195;-86
2021/04/16 13:47:31;;;;;;;4.03;2.50;;;20.70;76.70;;;;;;5020282;28;20185;-86
2021/04/16 13:49:58;;;;;;;4.75;3.25;;;21.20;74.60;;;;;;5028073;28;20255;-84
2021/04/16 13:52:25;;;;;;;6.25;2.80;;;21.40;74.40;;;;;;5015277;28;20277;-85
2021/04/16 13:54:52;;;;;;;7.75;2.58;;;21.20;74.60;;;;;;5022348;28;20182;-85
2021/04/16 13:57:20;;;;;;;3.40;2.40;;;21.20;71.40;;;;;;5015554;28;20196;-87
2021/04/16 13:59:47;;;;;;;4.25;2.92;;;21.90;73.10;;;;;;5014266;28;20225;-87
2021/04/16 14:02:17;;;;;;;3.50;2.60;;;22.50;69.40;;;;;;5014302;28;20284;-88
2021/04/16 14:04:46;;;;;;;3.85;2.63;;;22.70;64.30;;;;;;5017176;27;20246;-88
2021/04/16 14:07:13;;;;;;;3.85;2.70;;;21.30;62.70;;;;;;5016061;28;20276;-87
2021/04/16 14:09:40;;;;;;;5.97;3.08;;;20.30;61.80;;;;;;5034401;28;20195;-86
2021/04/16 14:12:09;;;;;;;3.00;2.08;;;19.80;63.40;;;;;;5021019;28;20222;-86
2021/04/16 14:14:36;;;;;;;3.88;3.10;;;19.20;61.10;;;;;;5018365;28;20196;-86
2021/04/16 14:17:05;;;;;;;4.25;2.60;;;19.50;64.10;;;;;;5023714;28;20185;-88
2021/04/16 14:19:41;;;;;;;4.90;2.97;;;19.80;64.10;;;;;;5016270;28;20213;-85
2021/04/16 14:22:11;;;;;;;3.05;2.63;;;19.80;63.60;;;;;;5023142;28;20223;-86
2021/04/16 14:24:37;;;;;;;3.75;2.72;;;20.10;63.00;;;;;;5016289;28;20189;-86
2021/04/16 14:27:04;;;;;;;3.30;2.70;;;19.00;64.10;;;;;;5017062;28;20322;-85
2021/04/16 14:29:30;;;;;;;3.47;2.70;;;19.10;63.20;;;;;;5013379;28;20204;-85
2021/04/16 14:31:57;;;;;;;4.60;3.08;;;19.70;65.80;;;;;;5017388;28;20275;-85
2021/04/16 14:34:27;;;;;;;8.50;2.90;;;20.20;64.60;;;;;;5013207;28;20242;-87
2021/04/16 14:36:53;;;;;;;3.58;2.42;;;20.50;65.10;;;;;;5016946;28;20217;-87
2021/04/16 14:39:20;;;;;;;3.55;2.50;;;20.10;61.60;;;;;;5013524;28;20221;-85
2021/04/16 14:41:46;;;;;;;3.13;2.33;;;19.20;61.20;;;;;;5018986;28;20200;-86
2021/04/16 14:44:20;;;;;;;3.55;2.55;;;19.10;62.00;;;;;;5020359;28;20194;-86
2021/04/16 14:46:49;;;;;;;4.78;3.42;;;19.30;63.30;;;;;;5021488;28;20190;-84
2021/04/16 14:49:19;;;;;;;3.92;2.90;;;18.60;62.70;;;;;;5030132;28;20209;-87
2021/04/16 14:51:46;;;;;;;3.95;2.83;;;18.20;64.60;;;;;;5035055;28;20212;-86
2021/04/16 14:54:26;;;;;;;3.65;2.42;;;18.80;64.70;;;;;;5034085;28;20285;-85
2021/04/16 14:56:56;;;;;;;4.82;2.30;;;19.70;64.30;;;;;;5019868;28;20220;-86
2021/04/16 14:59:26;;;;;;;4.40;3.05;;;20.20;65.20;;;;;;5018526;28;20607;-88
2021/04/16 15:01:53;;;;;;;6.03;3.25;;;20.10;64.90;;;;;;5026535;28;20673;-87
2021/04/16 15:04:26;;;;;;;3.92;2.53;;;19.30;62.10;;;;;;5035078;28;20207;-87
2021/04/16 15:06:58;;;;;;;4.07;2.50;;;18.80;60.50;;;;;;5027688;28;20247;-86
2021/04/16 15:09:29;;;;;;;3.40;3.10;;;18.90;59.80;;;;;;4994646;28;20239;-86
2021/04/16 15:11:56;;;;;;;5.00;2.90;;;19.40;62.30;;;;;;5008765;28;20518;-88
2021/04/16 15:14:26;;;;;;;3.72;2.20;;;20.00;64.50;;;;;;5014391;28;20189;-86
2021/04/16 15:16:54;;;;;;;5.22;2.22;;;20.90;62.90;;;;;;5022834;28;20216;-87
2021/04/16 15:19:28;;;;;;;4.90;2.80;;;21.90;64.10;;;;;;5033077;28;20209;-87
2021/04/16 15:21:55;;;;;;;4.65;2.70;;;22.90;61.90;;;;;;5015447;28;20193;-87